sensor_id;sensor_type;location;lat;lon;timestamp;P1;durP1;ratioP1;P2;durP2;ratioP2
16800;SDS011;8518;53.236;10.384;2023-08-06T00:02:23;4.13;;;3.73;;
16800;SDS011;8518;53.236;10.384;2023-08-06T00:04:49;4.87;;;4.37;;
16800;SDS011;8518;53.236;10.384;2023-08-06T00:10:37;7.07;;;3.90;;
16800;SDS011;8518;53.236;10.384;2023-08-06T00:16:27;4.87;;;4.37;;
16800;SDS011;8518;53.236;10.384;2023-08-06T00:18:53;5.87;;;4.27;;
16800;SDS011;8518;53.236;10.384;2023-08-06T00:21:19;4.90;;;4.40;;
16800;SDS011;8518;53.236;10.384;2023-08-06T00:23:45;4.77;;;4.23;;
16800;SDS011;8518;53.236;10.384;2023-08-06T00:29:33;5.90;;;4.23;;
16800;SDS011;8518;53.236;10.384;2023-08-06T00:32:02;4.53;;;4.10;;
16800;SDS011;8518;53.236;10.384;2023-08-06T00:34:27;6.83;;;4.60;;
16800;SDS011;8518;53.236;10.384;2023-08-06T00:40:19;4.87;;;4.20;;
16800;SDS011;8518;53.236;10.384;2023-08-06T00:42:46;6.33;;;4.17;;
16800;SDS011;8518;53.236;10.384;2023-08-06T00:45:12;8.80;;;4.37;;
16800;SDS011;8518;53.236;10.384;2023-08-06T00:47:37;7.17;;;4.23;;
16800;SDS011;8518;53.236;10.384;2023-08-06T00:50:05;5.57;;;4.33;;
16800;SDS011;8518;53.236;10.384;2023-08-06T00:52:32;5.53;;;4.23;;
16800;SDS011;8518;53.236;10.384;2023-08-06T00:54:58;5.00;;;3.67;;
16800;SDS011;8518;53.236;10.384;2023-08-06T01:00:46;4.27;;;3.87;;
16800;SDS011;8518;53.236;10.384;2023-08-06T01:03:15;5.40;;;4.27;;
16800;SDS011;8518;53.236;10.384;2023-08-06T01:09:09;5.80;;;4.20;;
16800;SDS011;8518;53.236;10.384;2023-08-06T01:12:03;5.47;;;4.33;;
16800;SDS011;8518;53.236;10.384;2023-08-06T01:14:58;5.83;;;3.80;;
16800;SDS011;8518;53.236;10.384;2023-08-06T01:17:30;4.53;;;3.73;;
16800;SDS011;8518;53.236;10.384;2023-08-06T01:19:58;5.60;;;3.67;;
16800;SDS011;8518;53.236;10.384;2023-08-06T01:22:23;4.17;;;3.80;;
16800;SDS011;8518;53.236;10.384;2023-08-06T01:24:49;4.30;;;3.70;;
16800;SDS011;8518;53.236;10.384;2023-08-06T01:30:40;5.00;;;3.60;;
16800;SDS011;8518;53.236;10.384;2023-08-06T01:36:36;4.30;;;3.90;;
16800;SDS011;8518;53.236;10.384;2023-08-06T01:39:02;4.53;;;3.73;;
16800;SDS011;8518;53.236;10.384;2023-08-06T01:41:30;5.97;;;3.80;;
16800;SDS011;8518;53.236;10.384;2023-08-06T01:43:55;3.93;;;3.53;;
16800;SDS011;8518;53.236;10.384;2023-08-06T01:49:43;6.27;;;3.90;;
16800;SDS011;8518;53.236;10.384;2023-08-06T01:52:09;5.17;;;4.17;;
16800;SDS011;8518;53.236;10.384;2023-08-06T01:54:37;6.60;;;3.87;;
16800;SDS011;8518;53.236;10.384;2023-08-06T02:00:26;4.10;;;3.70;;
16800;SDS011;8518;53.236;10.384;2023-08-06T02:02:54;4.30;;;3.90;;
16800;SDS011;8518;53.236;10.384;2023-08-06T02:05:22;6.87;;;4.30;;
16800;SDS011;8518;53.236;10.384;2023-08-06T02:07:49;4.63;;;3.47;;
16800;SDS011;8518;53.236;10.384;2023-08-06T02:10:15;5.37;;;3.83;;
16800;SDS011;8518;53.236;10.384;2023-08-06T02:12:40;5.10;;;4.03;;
16800;SDS011;8518;53.236;10.384;2023-08-06T02:15:06;4.23;;;3.83;;
16800;SDS011;8518;53.236;10.384;2023-08-06T02:17:32;5.47;;;4.10;;
16800;SDS011;8518;53.236;10.384;2023-08-06T02:19:58;6.20;;;4.13;;
16800;SDS011;8518;53.236;10.384;2023-08-06T02:22:26;3.93;;;3.53;;
16800;SDS011;8518;53.236;10.384;2023-08-06T02:24:52;4.30;;;3.77;;
16800;SDS011;8518;53.236;10.384;2023-08-06T02:30:49;7.30;;;4.07;;
16800;SDS011;8518;53.236;10.384;2023-08-06T02:36:38;4.67;;;3.97;;
16800;SDS011;8518;53.236;10.384;2023-08-06T02:39:07;4.97;;;4.13;;
16800;SDS011;8518;53.236;10.384;2023-08-06T02:41:33;4.50;;;4.10;;
16800;SDS011;8518;53.236;10.384;2023-08-06T02:44:00;5.90;;;3.97;;
16800;SDS011;8518;53.236;10.384;2023-08-06T02:49:48;4.50;;;4.10;;
16800;SDS011;8518;53.236;10.384;2023-08-06T02:52:15;5.20;;;3.67;;
16800;SDS011;8518;53.236;10.384;2023-08-06T02:54:40;7.00;;;4.13;;
16800;SDS011;8518;53.236;10.384;2023-08-06T03:00:30;4.43;;;4.03;;
16800;SDS011;8518;53.236;10.384;2023-08-06T03:02:58;6.00;;;4.20;;
16800;SDS011;8518;53.236;10.384;2023-08-06T03:05:24;5.30;;;4.77;;
16800;SDS011;8518;53.236;10.384;2023-08-06T03:07:49;5.13;;;3.90;;
16800;SDS011;8518;53.236;10.384;2023-08-06T03:10:15;7.63;;;4.40;;
16800;SDS011;8518;53.236;10.384;2023-08-06T03:12:41;4.90;;;3.77;;
16800;SDS011;8518;53.236;10.384;2023-08-06T03:15:09;5.30;;;3.90;;
16800;SDS011;8518;53.236;10.384;2023-08-06T03:17:35;6.43;;;3.90;;
16800;SDS011;8518;53.236;10.384;2023-08-06T03:20:01;6.17;;;4.07;;
16800;SDS011;8518;53.236;10.384;2023-08-06T03:22:27;5.93;;;4.10;;
16800;SDS011;8518;53.236;10.384;2023-08-06T03:24:52;6.10;;;4.10;;
16800;SDS011;8518;53.236;10.384;2023-08-06T03:30:40;3.90;;;3.50;;
16800;SDS011;8518;53.236;10.384;2023-08-06T03:33:06;3.87;;;3.57;;
16800;SDS011;8518;53.236;10.384;2023-08-06T03:35:33;4.37;;;3.97;;
16800;SDS011;8518;53.236;10.384;2023-08-06T03:37:59;6.67;;;4.03;;
16800;SDS011;8518;53.236;10.384;2023-08-06T03:40:24;6.57;;;4.03;;
16800;SDS011;8518;53.236;10.384;2023-08-06T03:42:50;4.17;;;3.77;;
16800;SDS011;8518;53.236;10.384;2023-08-06T03:45:16;4.27;;;3.87;;
16800;SDS011;8518;53.236;10.384;2023-08-06T03:47:42;4.20;;;3.80;;
16800;SDS011;8518;53.236;10.384;2023-08-06T03:50:08;5.23;;;3.90;;
16800;SDS011;8518;53.236;10.384;2023-08-06T03:52:34;6.60;;;4.03;;
16800;SDS011;8518;53.236;10.384;2023-08-06T03:54:59;5.73;;;3.97;;
16800;SDS011;8518;53.236;10.384;2023-08-06T04:00:47;4.27;;;3.87;;
16800;SDS011;8518;53.236;10.384;2023-08-06T04:03:13;5.00;;;3.90;;
16800;SDS011;8518;53.236;10.384;2023-08-06T04:09:01;5.87;;;3.77;;
16800;SDS011;8518;53.236;10.384;2023-08-06T04:14:51;4.80;;;4.00;;
16800;SDS011;8518;53.236;10.384;2023-08-06T04:20:45;4.77;;;4.10;;
16800;SDS011;8518;53.236;10.384;2023-08-06T04:23:11;6.60;;;4.20;;
16800;SDS011;8518;53.236;10.384;2023-08-06T04:29:07;7.80;;;4.37;;
16800;SDS011;8518;53.236;10.384;2023-08-06T04:31:34;5.03;;;4.20;;
16800;SDS011;8518;53.236;10.384;2023-08-06T04:34:01;5.27;;;4.10;;
16800;SDS011;8518;53.236;10.384;2023-08-06T04:36:27;7.27;;;4.57;;
16800;SDS011;8518;53.236;10.384;2023-08-06T04:38:52;6.00;;;4.90;;
16800;SDS011;8518;53.236;10.384;2023-08-06T04:41:18;7.60;;;5.00;;
16800;SDS011;8518;53.236;10.384;2023-08-06T04:43:44;5.57;;;4.23;;
16800;SDS011;8518;53.236;10.384;2023-08-06T04:49:32;4.10;;;3.70;;
16800;SDS011;8518;53.236;10.384;2023-08-06T04:51:58;5.23;;;4.10;;
16800;SDS011;8518;53.236;10.384;2023-08-06T04:54:23;5.67;;;4.07;;
16800;SDS011;8518;53.236;10.384;2023-08-06T05:00:11;5.83;;;4.17;;
16800;SDS011;8518;53.236;10.384;2023-08-06T05:06:00;4.57;;;3.90;;
16800;SDS011;8518;53.236;10.384;2023-08-06T05:08:28;4.33;;;3.60;;
16800;SDS011;8518;53.236;10.384;2023-08-06T05:10:54;6.97;;;3.80;;
16800;SDS011;8518;53.236;10.384;2023-08-06T05:13:20;6.47;;;3.70;;
16800;SDS011;8518;53.236;10.384;2023-08-06T05:19:08;5.33;;;4.00;;
16800;SDS011;8518;53.236;10.384;2023-08-06T05:21:33;5.80;;;3.37;;
16800;SDS011;8518;53.236;10.384;2023-08-06T05:23:59;6.07;;;3.73;;
16800;SDS011;8518;53.236;10.384;2023-08-06T05:29:48;6.63;;;3.53;;
16800;SDS011;8518;53.236;10.384;2023-08-06T05:35:53;4.70;;;3.70;;
16800;SDS011;8518;53.236;10.384;2023-08-06T05:38:22;3.67;;;3.37;;
16800;SDS011;8518;53.236;10.384;2023-08-06T05:40:48;5.23;;;3.70;;
16800;SDS011;8518;53.236;10.384;2023-08-06T05:43:14;6.77;;;3.70;;
16800;SDS011;8518;53.236;10.384;2023-08-06T05:49:05;7.57;;;4.37;;
16800;SDS011;8518;53.236;10.384;2023-08-06T05:54:57;3.93;;;3.53;;
16800;SDS011;8518;53.236;10.384;2023-08-06T06:00:45;7.30;;;3.83;;
16800;SDS011;8518;53.236;10.384;2023-08-06T06:03:11;6.30;;;3.73;;
16800;SDS011;8518;53.236;10.384;2023-08-06T06:09:05;3.87;;;3.33;;
16800;SDS011;8518;53.236;10.384;2023-08-06T06:14:56;4.70;;;3.77;;
16800;SDS011;8518;53.236;10.384;2023-08-06T06:20:44;4.77;;;4.03;;
16800;SDS011;8518;53.236;10.384;2023-08-06T06:23:12;8.03;;;4.23;;
16800;SDS011;8518;53.236;10.384;2023-08-06T06:29:01;4.97;;;3.70;;
16800;SDS011;8518;53.236;10.384;2023-08-06T06:31:30;6.73;;;4.00;;
16800;SDS011;8518;53.236;10.384;2023-08-06T06:33:55;3.73;;;3.33;;
16800;SDS011;8518;53.236;10.384;2023-08-06T06:40:03;5.47;;;3.90;;
16800;SDS011;8518;53.236;10.384;2023-08-06T06:42:29;6.27;;;3.93;;
16800;SDS011;8518;53.236;10.384;2023-08-06T06:44:55;5.07;;;3.92;;
16800;SDS011;8518;53.236;10.384;2023-08-06T06:50:43;6.17;;;3.90;;
16800;SDS011;8518;53.236;10.384;2023-08-06T06:53:12;5.60;;;3.57;;
16800;SDS011;8518;53.236;10.384;2023-08-06T06:59:13;5.87;;;3.77;;
16800;SDS011;8518;53.236;10.384;2023-08-06T07:01:38;6.90;;;4.20;;
16800;SDS011;8518;53.236;10.384;2023-08-06T07:04:04;5.82;;;4.10;;
16800;SDS011;8518;53.236;10.384;2023-08-06T07:09:51;5.32;;;4.47;;
16800;SDS011;8518;53.236;10.384;2023-08-06T07:15:40;4.83;;;4.17;;
16800;SDS011;8518;53.236;10.384;2023-08-06T07:18:05;6.97;;;4.10;;
16800;SDS011;8518;53.236;10.384;2023-08-06T07:20:31;5.43;;;4.17;;
16800;SDS011;8518;53.236;10.384;2023-08-06T07:22:58;7.63;;;4.47;;
16800;SDS011;8518;53.236;10.384;2023-08-06T07:25:24;5.85;;;4.03;;
16800;SDS011;8518;53.236;10.384;2023-08-06T07:27:49;6.63;;;4.30;;
16800;SDS011;8518;53.236;10.384;2023-08-06T07:30:16;4.20;;;3.80;;
16800;SDS011;8518;53.236;10.384;2023-08-06T07:32:42;4.93;;;4.05;;
16800;SDS011;8518;53.236;10.384;2023-08-06T07:35:08;4.10;;;3.73;;
16800;SDS011;8518;53.236;10.384;2023-08-06T07:37:37;5.20;;;3.73;;
16800;SDS011;8518;53.236;10.384;2023-08-06T07:40:05;4.22;;;3.83;;
16800;SDS011;8518;53.236;10.384;2023-08-06T07:42:31;5.57;;;3.43;;
16800;SDS011;8518;53.236;10.384;2023-08-06T07:44:57;6.55;;;4.32;;
16800;SDS011;8518;53.236;10.384;2023-08-06T07:51:00;6.40;;;3.78;;
16800;SDS011;8518;53.236;10.384;2023-08-06T07:53:26;5.50;;;4.07;;
16800;SDS011;8518;53.236;10.384;2023-08-06T07:59:14;7.38;;;4.00;;
16800;SDS011;8518;53.236;10.384;2023-08-06T08:01:40;4.40;;;4.00;;
16800;SDS011;8518;53.236;10.384;2023-08-06T08:04:06;6.85;;;4.07;;
16800;SDS011;8518;53.236;10.384;2023-08-06T08:09:53;5.07;;;4.30;;
16800;SDS011;8518;53.236;10.384;2023-08-06T08:15:44;7.97;;;4.35;;
16800;SDS011;8518;53.236;10.384;2023-08-06T08:18:11;4.90;;;4.38;;
16800;SDS011;8518;53.236;10.384;2023-08-06T08:20:37;5.88;;;4.20;;
16800;SDS011;8518;53.236;10.384;2023-08-06T08:23:02;6.18;;;4.07;;
16800;SDS011;8518;53.236;10.384;2023-08-06T08:28:50;5.72;;;4.97;;
16800;SDS011;8518;53.236;10.384;2023-08-06T08:31:21;5.57;;;4.90;;
16800;SDS011;8518;53.236;10.384;2023-08-06T08:33:47;5.35;;;4.55;;
16800;SDS011;8518;53.236;10.384;2023-08-06T08:39:35;9.05;;;5.43;;
16800;SDS011;8518;53.236;10.384;2023-08-06T08:42:01;13.48;;;5.88;;
16800;SDS011;8518;53.236;10.384;2023-08-06T08:44:35;13.48;;;6.85;;
16800;SDS011;8518;53.236;10.384;2023-08-06T08:50:26;8.18;;;6.18;;
16800;SDS011;8518;53.236;10.384;2023-08-06T08:52:57;12.32;;;7.00;;
16800;SDS011;8518;53.236;10.384;2023-08-06T08:58:46;11.98;;;5.57;;
16800;SDS011;8518;53.236;10.384;2023-08-06T09:04:36;8.20;;;5.75;;
16800;SDS011;8518;53.236;10.384;2023-08-06T09:10:28;8.13;;;5.72;;
16800;SDS011;8518;53.236;10.384;2023-08-06T09:12:53;7.32;;;5.20;;
16800;SDS011;8518;53.236;10.384;2023-08-06T09:15:26;7.28;;;5.55;;
16800;SDS011;8518;53.236;10.384;2023-08-06T09:18:08;5.88;;;4.97;;
16800;SDS011;8518;53.236;10.384;2023-08-06T09:20:37;7.68;;;4.82;;
16800;SDS011;8518;53.236;10.384;2023-08-06T09:23:10;6.30;;;5.70;;
16800;SDS011;8518;53.236;10.384;2023-08-06T09:28:58;9.07;;;5.47;;
16800;SDS011;8518;53.236;10.384;2023-08-06T09:31:25;9.20;;;5.45;;
16800;SDS011;8518;53.236;10.384;2023-08-06T09:34:01;6.43;;;4.72;;
16800;SDS011;8518;53.236;10.384;2023-08-06T09:39:49;5.80;;;5.03;;
16800;SDS011;8518;53.236;10.384;2023-08-06T09:42:18;6.95;;;5.38;;
16800;SDS011;8518;53.236;10.384;2023-08-06T09:44:43;6.07;;;5.47;;
16800;SDS011;8518;53.236;10.384;2023-08-06T09:50:35;6.53;;;4.57;;
16800;SDS011;8518;53.236;10.384;2023-08-06T09:53:06;5.70;;;4.82;;
16800;SDS011;8518;53.236;10.384;2023-08-06T09:58:56;8.95;;;5.80;;
16800;SDS011;8518;53.236;10.384;2023-08-06T10:01:24;8.35;;;5.38;;
16800;SDS011;8518;53.236;10.384;2023-08-06T10:03:53;8.05;;;5.28;;
16800;SDS011;8518;53.236;10.384;2023-08-06T10:09:43;7.30;;;5.53;;
16800;SDS011;8518;53.236;10.384;2023-08-06T10:12:14;8.10;;;5.43;;
16800;SDS011;8518;53.236;10.384;2023-08-06T10:14:44;7.88;;;5.80;;
16800;SDS011;8518;53.236;10.384;2023-08-06T10:20:34;7.97;;;4.80;;
16800;SDS011;8518;53.236;10.384;2023-08-06T10:23:04;5.97;;;4.63;;
16800;SDS011;8518;53.236;10.384;2023-08-06T10:28:53;6.28;;;5.25;;
16800;SDS011;8518;53.236;10.384;2023-08-06T10:31:20;6.78;;;4.90;;
16800;SDS011;8518;53.236;10.384;2023-08-06T10:34:06;7.95;;;4.72;;
16800;SDS011;8518;53.236;10.384;2023-08-06T10:39:55;8.65;;;5.05;;
16800;SDS011;8518;53.236;10.384;2023-08-06T10:42:21;6.32;;;4.70;;
16800;SDS011;8518;53.236;10.384;2023-08-06T10:47:38;7.15;;;4.75;;
16800;SDS011;8518;53.236;10.384;2023-08-06T10:50:05;5.90;;;4.95;;
16800;SDS011;8518;53.236;10.384;2023-08-06T10:52:43;8.35;;;4.30;;
16800;SDS011;8518;53.236;10.384;2023-08-06T10:55:09;6.72;;;4.13;;
16800;SDS011;8518;53.236;10.384;2023-08-06T10:57:35;5.65;;;4.60;;
16800;SDS011;8518;53.236;10.384;2023-08-06T11:00:03;6.65;;;4.30;;
16800;SDS011;8518;53.236;10.384;2023-08-06T11:02:32;4.75;;;4.30;;
16800;SDS011;8518;53.236;10.384;2023-08-06T11:05:07;6.00;;;4.18;;
16800;SDS011;8518;53.236;10.384;2023-08-06T11:07:36;5.70;;;4.10;;
16800;SDS011;8518;53.236;10.384;2023-08-06T11:10:05;4.32;;;3.88;;
16800;SDS011;8518;53.236;10.384;2023-08-06T11:12:35;6.30;;;4.20;;
16800;SDS011;8518;53.236;10.384;2023-08-06T11:15:01;6.53;;;4.22;;
16800;SDS011;8518;53.236;10.384;2023-08-06T11:17:29;6.70;;;4.40;;
16800;SDS011;8518;53.236;10.384;2023-08-06T11:20:00;4.72;;;4.30;;
16800;SDS011;8518;53.236;10.384;2023-08-06T11:22:28;5.07;;;4.03;;
16800;SDS011;8518;53.236;10.384;2023-08-06T11:24:54;4.90;;;3.70;;
16800;SDS011;8518;53.236;10.384;2023-08-06T11:30:44;4.30;;;3.67;;
16800;SDS011;8518;53.236;10.384;2023-08-06T11:33:09;5.75;;;3.85;;
16800;SDS011;8518;53.236;10.384;2023-08-06T11:39:00;3.47;;;2.85;;
16800;SDS011;8518;53.236;10.384;2023-08-06T11:41:28;3.53;;;3.03;;
16800;SDS011;8518;53.236;10.384;2023-08-06T11:43:57;3.90;;;2.78;;
16800;SDS011;8518;53.236;10.384;2023-08-06T11:49:47;2.83;;;2.40;;
16800;SDS011;8518;53.236;10.384;2023-08-06T11:52:18;4.13;;;2.50;;
16800;SDS011;8518;53.236;10.384;2023-08-06T11:57:36;3.75;;;2.05;;
16800;SDS011;8518;53.236;10.384;2023-08-06T12:00:09;3.47;;;2.63;;
16800;SDS011;8518;53.236;10.384;2023-08-06T12:02:36;2.53;;;2.30;;
16800;SDS011;8518;53.236;10.384;2023-08-06T12:05:10;3.40;;;2.50;;
16800;SDS011;8518;53.236;10.384;2023-08-06T12:07:37;3.22;;;2.47;;
16800;SDS011;8518;53.236;10.384;2023-08-06T12:10:05;3.03;;;2.30;;
16800;SDS011;8518;53.236;10.384;2023-08-06T12:12:31;2.85;;;2.65;;
16800;SDS011;8518;53.236;10.384;2023-08-06T12:14:57;2.38;;;2.17;;
16800;SDS011;8518;53.236;10.384;2023-08-06T12:20:45;2.90;;;2.47;;
16800;SDS011;8518;53.236;10.384;2023-08-06T12:23:11;2.50;;;2.30;;
16800;SDS011;8518;53.236;10.384;2023-08-06T12:29:02;2.53;;;2.33;;
16800;SDS011;8518;53.236;10.384;2023-08-06T12:31:28;2.40;;;2.20;;
16800;SDS011;8518;53.236;10.384;2023-08-06T12:33:54;2.50;;;2.30;;
16800;SDS011;8518;53.236;10.384;2023-08-06T12:39:42;2.47;;;2.28;;
16800;SDS011;8518;53.236;10.384;2023-08-06T12:42:07;3.13;;;2.35;;
16800;SDS011;8518;53.236;10.384;2023-08-06T12:44:33;2.63;;;2.35;;
16800;SDS011;8518;53.236;10.384;2023-08-06T12:50:21;3.60;;;2.60;;
16800;SDS011;8518;53.236;10.384;2023-08-06T12:52:47;2.70;;;2.50;;
16800;SDS011;8518;53.236;10.384;2023-08-06T12:55:12;3.35;;;2.80;;
16800;SDS011;8518;53.236;10.384;2023-08-06T12:57:38;4.38;;;3.08;;
16800;SDS011;8518;53.236;10.384;2023-08-06T13:00:04;3.83;;;2.85;;
16800;SDS011;8518;53.236;10.384;2023-08-06T13:02:30;2.50;;;2.30;;
16800;SDS011;8518;53.236;10.384;2023-08-06T13:04:56;3.13;;;2.80;;
16800;SDS011;8518;53.236;10.384;2023-08-06T13:10:43;3.05;;;2.60;;
16800;SDS011;8518;53.236;10.384;2023-08-06T13:13:09;3.83;;;2.60;;
16800;SDS011;8518;53.236;10.384;2023-08-06T13:19:00;3.03;;;2.70;;
16800;SDS011;8518;53.236;10.384;2023-08-06T13:21:31;4.35;;;2.60;;
16800;SDS011;8518;53.236;10.384;2023-08-06T13:24:06;3.25;;;2.90;;
16800;SDS011;8518;53.236;10.384;2023-08-06T13:29:54;3.22;;;2.92;;
16800;SDS011;8518;53.236;10.384;2023-08-06T13:32:19;3.22;;;2.55;;
16800;SDS011;8518;53.236;10.384;2023-08-06T13:34:45;3.28;;;2.97;;
16800;SDS011;8518;53.236;10.384;2023-08-06T13:40:33;3.78;;;2.50;;
16800;SDS011;8518;53.236;10.384;2023-08-06T13:43:00;3.58;;;3.28;;
16800;SDS011;8518;53.236;10.384;2023-08-06T13:45:26;3.30;;;2.85;;
16800;SDS011;8518;53.236;10.384;2023-08-06T13:47:51;5.40;;;3.28;;
16800;SDS011;8518;53.236;10.384;2023-08-06T13:50:17;4.78;;;3.08;;
16800;SDS011;8518;53.236;10.384;2023-08-06T13:52:44;3.38;;;3.08;;
16800;SDS011;8518;53.236;10.384;2023-08-06T13:55:09;3.50;;;3.08;;
16800;SDS011;8518;53.236;10.384;2023-08-06T13:57:35;3.10;;;2.80;;
16800;SDS011;8518;53.236;10.384;2023-08-06T14:00:01;3.63;;;3.10;;
16800;SDS011;8518;53.236;10.384;2023-08-06T14:02:27;3.88;;;3.20;;
16800;SDS011;8518;53.236;10.384;2023-08-06T14:04:52;3.00;;;2.80;;
16800;SDS011;8518;53.236;10.384;2023-08-06T14:10:40;4.60;;;3.22;;
16800;SDS011;8518;53.236;10.384;2023-08-06T14:13:06;3.78;;;2.90;;
16800;SDS011;8518;53.236;10.384;2023-08-06T14:18:54;3.70;;;3.10;;
16800;SDS011;8518;53.236;10.384;2023-08-06T14:21:19;3.85;;;3.45;;
16800;SDS011;8518;53.236;10.384;2023-08-06T14:23:46;5.80;;;3.72;;
16800;SDS011;8518;53.236;10.384;2023-08-06T14:29:34;4.45;;;3.90;;
16800;SDS011;8518;53.236;10.384;2023-08-06T14:32:00;4.65;;;3.13;;
16800;SDS011;8518;53.236;10.384;2023-08-06T14:34:25;8.07;;;4.18;;
16800;SDS011;8518;53.236;10.384;2023-08-06T14:40:17;4.40;;;3.40;;
16800;SDS011;8518;53.236;10.384;2023-08-06T14:46:50;4.47;;;3.45;;
16800;SDS011;8518;53.236;10.384;2023-08-06T14:49:15;6.05;;;3.30;;
16800;SDS011;8518;53.236;10.384;2023-08-06T14:51:41;7.30;;;3.30;;
16800;SDS011;8518;53.236;10.384;2023-08-06T14:54:06;3.97;;;3.10;;
16800;SDS011;8518;53.236;10.384;2023-08-06T14:59:54;4.93;;;3.28;;
16800;SDS011;8518;53.236;10.384;2023-08-06T15:02:20;5.72;;;3.10;;
16800;SDS011;8518;53.236;10.384;2023-08-06T15:04:47;3.78;;;2.83;;
16800;SDS011;8518;53.236;10.384;2023-08-06T15:10:35;3.60;;;2.85;;
16800;SDS011;8518;53.236;10.384;2023-08-06T15:13:01;4.82;;;3.03;;
16800;SDS011;8518;53.236;10.384;2023-08-06T15:18:49;4.05;;;2.70;;
16800;SDS011;8518;53.236;10.384;2023-08-06T15:21:15;2.95;;;2.50;;
16800;SDS011;8518;53.236;10.384;2023-08-06T15:23:42;3.67;;;2.22;;
16800;SDS011;8518;53.236;10.384;2023-08-06T15:29:30;4.18;;;2.40;;
16800;SDS011;8518;53.236;10.384;2023-08-06T15:31:56;3.38;;;2.45;;
16800;SDS011;8518;53.236;10.384;2023-08-06T15:34:21;2.50;;;2.03;;
16800;SDS011;8518;53.236;10.384;2023-08-06T15:40:09;2.67;;;2.15;;
16800;SDS011;8518;53.236;10.384;2023-08-06T15:42:36;2.85;;;2.00;;
16800;SDS011;8518;53.236;10.384;2023-08-06T15:45:01;3.75;;;1.73;;
16800;SDS011;8518;53.236;10.384;2023-08-06T15:47:28;3.55;;;2.15;;
16800;SDS011;8518;53.236;10.384;2023-08-06T15:49:54;3.47;;;2.00;;
16800;SDS011;8518;53.236;10.384;2023-08-06T15:52:20;4.28;;;1.98;;
16800;SDS011;8518;53.236;10.384;2023-08-06T15:54:45;4.45;;;2.03;;
16800;SDS011;8518;53.236;10.384;2023-08-06T16:00:33;2.47;;;1.90;;
16800;SDS011;8518;53.236;10.384;2023-08-06T16:02:59;3.75;;;1.90;;
16800;SDS011;8518;53.236;10.384;2023-08-06T16:08:49;3.03;;;1.92;;
16800;SDS011;8518;53.236;10.384;2023-08-06T16:11:19;2.20;;;1.60;;
16800;SDS011;8518;53.236;10.384;2023-08-06T16:13:45;3.42;;;1.90;;
16800;SDS011;8518;53.236;10.384;2023-08-06T16:19:32;4.53;;;2.20;;
16800;SDS011;8518;53.236;10.384;2023-08-06T16:21:59;4.15;;;2.15;;
16800;SDS011;8518;53.236;10.384;2023-08-06T16:24:24;3.33;;;2.40;;
16800;SDS011;8518;53.236;10.384;2023-08-06T16:30:16;4.18;;;2.72;;
16800;SDS011;8518;53.236;10.384;2023-08-06T16:36:05;3.15;;;2.17;;
16800;SDS011;8518;53.236;10.384;2023-08-06T16:38:31;4.35;;;2.53;;
16800;SDS011;8518;53.236;10.384;2023-08-06T16:40:57;2.80;;;2.55;;
16800;SDS011;8518;53.236;10.384;2023-08-06T16:43:27;4.82;;;2.75;;
16800;SDS011;8518;53.236;10.384;2023-08-06T16:49:15;2.95;;;2.42;;
16800;SDS011;8518;53.236;10.384;2023-08-06T16:55:04;4.55;;;2.28;;
16800;SDS011;8518;53.236;10.384;2023-08-06T16:57:34;5.60;;;2.70;;
16800;SDS011;8518;53.236;10.384;2023-08-06T17:00:02;3.65;;;2.83;;
16800;SDS011;8518;53.236;10.384;2023-08-06T17:02:34;4.43;;;2.83;;
16800;SDS011;8518;53.236;10.384;2023-08-06T17:05:03;7.45;;;3.13;;
16800;SDS011;8518;53.236;10.384;2023-08-06T17:07:29;3.17;;;2.55;;
16800;SDS011;8518;53.236;10.384;2023-08-06T17:10:15;2.78;;;2.58;;
16800;SDS011;8518;53.236;10.384;2023-08-06T17:12:47;4.80;;;2.75;;
16800;SDS011;8518;53.236;10.384;2023-08-06T17:15:18;3.33;;;2.60;;
16800;SDS011;8518;53.236;10.384;2023-08-06T17:17:46;6.10;;;2.63;;
16800;SDS011;8518;53.236;10.384;2023-08-06T17:20:30;3.15;;;2.80;;
16800;SDS011;8518;53.236;10.384;2023-08-06T17:31:02;6.07;;;2.72;;
16800;SDS011;8518;53.236;10.384;2023-08-06T17:33:36;4.53;;;3.55;;
16800;SDS011;8518;53.236;10.384;2023-08-06T17:39:24;4.22;;;3.03;;
16800;SDS011;8518;53.236;10.384;2023-08-06T17:41:50;3.83;;;3.20;;
16800;SDS011;8518;53.236;10.384;2023-08-06T17:44:38;4.45;;;3.25;;
16800;SDS011;8518;53.236;10.384;2023-08-06T17:47:06;4.80;;;3.22;;
16800;SDS011;8518;53.236;10.384;2023-08-06T17:49:35;7.93;;;3.75;;
16800;SDS011;8518;53.236;10.384;2023-08-06T17:52:02;4.13;;;3.30;;
16800;SDS011;8518;53.236;10.384;2023-08-06T17:54:31;6.03;;;3.88;;
16800;SDS011;8518;53.236;10.384;2023-08-06T18:00:19;4.75;;;3.13;;
16800;SDS011;8518;53.236;10.384;2023-08-06T18:02:45;5.53;;;3.70;;
16800;SDS011;8518;53.236;10.384;2023-08-06T18:05:10;3.67;;;3.30;;
16800;SDS011;8518;53.236;10.384;2023-08-06T18:07:40;3.45;;;3.08;;
16800;SDS011;8518;53.236;10.384;2023-08-06T18:10:09;3.37;;;3.07;;
16800;SDS011;8518;53.236;10.384;2023-08-06T18:12:36;4.88;;;3.08;;
16800;SDS011;8518;53.236;10.384;2023-08-06T18:15:07;4.07;;;2.92;;
16800;SDS011;8518;53.236;10.384;2023-08-06T18:17:35;5.18;;;3.40;;
16800;SDS011;8518;53.236;10.384;2023-08-06T18:20:01;3.80;;;3.35;;
16800;SDS011;8518;53.236;10.384;2023-08-06T18:22:32;3.92;;;3.13;;
16800;SDS011;8518;53.236;10.384;2023-08-06T18:24:58;3.67;;;3.30;;
16800;SDS011;8518;53.236;10.384;2023-08-06T18:27:29;6.50;;;3.60;;
16800;SDS011;8518;53.236;10.384;2023-08-06T18:29:55;4.87;;;3.27;;
16800;SDS011;8518;53.236;10.384;2023-08-06T18:32:23;6.13;;;3.67;;
16800;SDS011;8518;53.236;10.384;2023-08-06T18:34:51;4.43;;;3.27;;
16800;SDS011;8518;53.236;10.384;2023-08-06T18:40:39;4.28;;;3.70;;
16800;SDS011;8518;53.236;10.384;2023-08-06T18:43:05;3.67;;;3.23;;
16800;SDS011;8518;53.236;10.384;2023-08-06T18:49:02;3.88;;;3.17;;
16800;SDS011;8518;53.236;10.384;2023-08-06T18:51:32;3.70;;;3.40;;
16800;SDS011;8518;53.236;10.384;2023-08-06T18:54:07;4.63;;;3.57;;
16800;SDS011;8518;53.236;10.384;2023-08-06T18:59:55;4.10;;;3.40;;
16800;SDS011;8518;53.236;10.384;2023-08-06T19:02:23;4.30;;;3.60;;
16800;SDS011;8518;53.236;10.384;2023-08-06T19:04:48;5.37;;;3.67;;
16800;SDS011;8518;53.236;10.384;2023-08-06T19:10:38;4.87;;;3.87;;
16800;SDS011;8518;53.236;10.384;2023-08-06T19:13:09;4.50;;;3.90;;
16800;SDS011;8518;53.236;10.384;2023-08-06T19:18:58;5.78;;;4.10;;
16800;SDS011;8518;53.236;10.384;2023-08-06T19:21:24;7.50;;;3.90;;
16800;SDS011;8518;53.236;10.384;2023-08-06T19:23:51;4.53;;;3.77;;
16800;SDS011;8518;53.236;10.384;2023-08-06T19:29:39;5.50;;;4.47;;
16800;SDS011;8518;53.236;10.384;2023-08-06T19:32:05;5.63;;;4.23;;
16800;SDS011;8518;53.236;10.384;2023-08-06T19:34:32;6.50;;;3.70;;
16800;SDS011;8518;53.236;10.384;2023-08-06T19:40:20;4.90;;;4.38;;
16800;SDS011;8518;53.236;10.384;2023-08-06T19:46:08;5.50;;;3.70;;
16800;SDS011;8518;53.236;10.384;2023-08-06T19:48:35;5.53;;;3.70;;
16800;SDS011;8518;53.236;10.384;2023-08-06T19:51:01;4.03;;;3.63;;
16800;SDS011;8518;53.236;10.384;2023-08-06T19:53:36;5.03;;;3.87;;
16800;SDS011;8518;53.236;10.384;2023-08-06T19:59:27;6.37;;;4.10;;
16800;SDS011;8518;53.236;10.384;2023-08-06T20:01:54;7.37;;;3.90;;
16800;SDS011;8518;53.236;10.384;2023-08-06T20:04:20;4.80;;;3.67;;
16800;SDS011;8518;53.236;10.384;2023-08-06T20:10:11;6.03;;;3.93;;
16800;SDS011;8518;53.236;10.384;2023-08-06T20:12:38;5.40;;;3.33;;
16800;SDS011;8518;53.236;10.384;2023-08-06T20:15:06;6.10;;;3.60;;
16800;SDS011;8518;53.236;10.384;2023-08-06T20:17:31;4.60;;;3.73;;
16800;SDS011;8518;53.236;10.384;2023-08-06T20:20:01;4.20;;;3.60;;
16800;SDS011;8518;53.236;10.384;2023-08-06T20:22:33;4.83;;;3.53;;
16800;SDS011;8518;53.236;10.384;2023-08-06T20:24:59;6.10;;;3.60;;
16800;SDS011;8518;53.236;10.384;2023-08-06T20:27:26;5.33;;;3.70;;
16800;SDS011;8518;53.236;10.384;2023-08-06T20:29:52;4.73;;;3.43;;